createdAt,value
2023-05-10T00:01:44.745Z,10.68
2023-05-10T00:11:48.329Z,10.52
2023-05-10T00:21:51.874Z,10.41
2023-05-10T00:31:55.395Z,10.36
2023-05-10T00:41:58.996Z,10.30
2023-05-10T00:52:04.343Z,10.13
2023-05-10T01:03:11.107Z,10.00
2023-05-10T01:13:20.100Z,9.79
2023-05-10T01:23:46.602Z,9.66
2023-05-10T01:34:17.647Z,9.60
2023-05-10T01:44:42.758Z,9.47
2023-05-10T01:54:53.287Z,9.31
2023-05-10T02:05:59.047Z,9.20
2023-05-10T02:16:06.415Z,9.03
2023-05-10T02:26:11.595Z,8.92
2023-05-10T02:36:16.727Z,8.86
2023-05-10T02:46:20.485Z,8.91
2023-05-10T02:57:27.913Z,8.94
2023-05-10T03:07:31.563Z,8.95
2023-05-10T03:17:48.683Z,9.20
2023-05-10T03:28:04.946Z,9.48
2023-05-10T03:38:31.072Z,9.77
2023-05-10T03:48:42.840Z,10.69
2023-05-10T03:59:27.020Z,13.61
2023-05-10T04:09:30.834Z,21.68
2023-05-10T04:19:34.528Z,29.07
2023-05-10T04:29:38.179Z,33.79
2023-05-10T04:39:42.506Z,37.18
2023-05-10T04:50:08.841Z,39.53
2023-05-10T05:00:13.399Z,40.98
2023-05-10T05:11:17.796Z,42.03
2023-05-10T05:21:21.479Z,39.98
2023-05-10T05:31:25.262Z,32.83
2023-05-10T05:41:28.774Z,27.88
2023-05-10T05:51:32.460Z,23.89
2023-05-10T06:01:36.844Z,21.91
2023-05-10T06:11:40.384Z,20.44
2023-05-10T06:21:46.666Z,19.73
2023-05-10T06:31:50.356Z,19.15
2023-05-10T06:41:54.068Z,18.92
2023-05-10T06:51:57.727Z,18.77
2023-05-10T07:02:02.918Z,18.47
2023-05-10T07:12:08.232Z,18.34
2023-05-10T07:22:14.176Z,18.33
2023-05-10T07:32:17.722Z,18.31
2023-05-10T07:42:22.837Z,18.35
2023-05-10T07:52:26.661Z,18.38
2023-05-10T08:03:30.928Z,18.42
2023-05-10T08:13:35.317Z,18.43
2023-05-10T08:23:38.798Z,18.51
2023-05-10T08:33:50.579Z,18.72
2023-05-10T08:43:55.190Z,18.85
2023-05-10T08:54:21.070Z,18.96
2023-05-10T09:04:24.749Z,19.01
2023-05-10T09:14:28.848Z,19.17
2023-05-10T09:24:32.331Z,19.43
2023-05-10T09:34:41.368Z,19.67
2023-05-10T09:44:47.441Z,19.67
2023-05-10T09:55:35.265Z,19.75
2023-05-10T10:05:41.914Z,19.87
2023-05-10T10:15:46.039Z,19.90
2023-05-10T10:25:50.718Z,20.01
2023-05-10T10:35:55.745Z,20.04
2023-05-10T10:46:18.406Z,20.13
2023-05-10T10:57:03.233Z,20.32
2023-05-10T11:07:52.307Z,20.39
2023-05-10T11:17:57.056Z,20.46
2023-05-10T11:28:05.855Z,20.53
2023-05-10T11:38:29.659Z,20.72
2023-05-10T11:48:34.673Z,20.81
2023-05-10T11:58:40.254Z,20.97
2023-05-10T12:09:08.412Z,21.09
2023-05-10T12:19:12.669Z,21.11
2023-05-10T12:29:18.916Z,21.09
2023-05-10T12:39:22.652Z,21.11
2023-05-10T12:49:26.176Z,21.20
2023-05-10T12:59:50.311Z,21.13
2023-05-10T13:09:55.631Z,21.25
2023-05-10T13:19:59.222Z,21.23
2023-05-10T13:30:06.357Z,21.52
2023-05-10T13:40:10.159Z,21.59
2023-05-10T13:50:13.785Z,21.46
2023-05-10T14:00:18.032Z,21.54
2023-05-10T14:10:21.709Z,21.57
2023-05-10T14:20:25.547Z,21.55
2023-05-10T14:30:29.266Z,21.47
2023-05-10T14:40:33.017Z,21.39
2023-05-10T14:50:37.530Z,21.49
2023-05-10T15:00:44.276Z,21.36
2023-05-10T15:10:48.955Z,21.36
2023-05-10T15:21:53.420Z,21.25
2023-05-10T15:31:57.052Z,20.99
2023-05-10T15:42:00.804Z,20.95
2023-05-10T15:52:04.429Z,20.95
2023-05-10T16:02:48.915Z,20.74
2023-05-10T16:12:54.291Z,20.50
2023-05-10T16:23:59.832Z,20.43
2023-05-10T16:34:03.715Z,20.57
2023-05-10T16:44:07.357Z,20.48
2023-05-10T16:54:11.120Z,20.19
2023-05-10T17:04:15.509Z,19.95
2023-05-10T17:14:19.511Z,19.65
2023-05-10T17:24:23.121Z,19.80
2023-05-10T17:34:26.790Z,19.71
2023-05-10T17:45:31.196Z,19.45
2023-05-10T17:55:35.179Z,18.92
2023-05-10T18:05:39.969Z,18.48
2023-05-10T18:16:25.246Z,18.13
2023-05-10T18:26:29.575Z,17.68
2023-05-10T18:37:14.449Z,17.31
2023-05-10T18:48:23.708Z,16.90
2023-05-10T18:59:35.298Z,16.50
2023-05-10T19:09:38.908Z,16.16
2023-05-10T19:19:43.620Z,15.93
2023-05-10T20:04:46.755Z,14.84
2023-05-10T20:26:41.762Z,14.55
2023-05-10T20:51:03.698Z,14.25
2023-05-10T21:15:00.319Z,13.80
2023-05-10T22:29:46.852Z,12.55
2023-05-10T22:40:13.824Z,12.50
2023-05-10T22:50:28.435Z,12.50
2023-05-10T23:00:45.503Z,12.44
2023-05-10T23:11:05.842Z,12.36
2023-05-10T23:21:40.094Z,12.18
2023-05-10T23:32:30.334Z,12.04
2023-05-10T23:54:55.649Z,11.62
